sensor_id;sensor_type;location;lat;lon;timestamp;P1;durP1;ratioP1;P2;durP2;ratioP2
12556;SDS011;6344;49.932;8.308;2023-03-31T00:00:16;7.17;;;2.77;;
12556;SDS011;6344;49.932;8.308;2023-03-31T00:02:43;5.07;;;2.97;;
12556;SDS011;6344;49.932;8.308;2023-03-31T00:05:09;5.07;;;3.10;;
12556;SDS011;6344;49.932;8.308;2023-03-31T00:07:43;5.03;;;2.90;;
12556;SDS011;6344;49.932;8.308;2023-03-31T00:10:12;5.10;;;3.50;;
12556;SDS011;6344;49.932;8.308;2023-03-31T00:12:43;8.13;;;3.30;;
12556;SDS011;6344;49.932;8.308;2023-03-31T00:15:10;6.63;;;2.80;;
12556;SDS011;6344;49.932;8.308;2023-03-31T00:17:37;5.60;;;3.30;;
12556;SDS011;6344;49.932;8.308;2023-03-31T00:20:04;8.90;;;4.00;;
12556;SDS011;6344;49.932;8.308;2023-03-31T00:22:36;7.63;;;3.30;;
12556;SDS011;6344;49.932;8.308;2023-03-31T00:25:08;6.27;;;4.40;;
12556;SDS011;6344;49.932;8.308;2023-03-31T00:27:35;9.20;;;4.40;;
12556;SDS011;6344;49.932;8.308;2023-03-31T00:30:04;7.00;;;5.10;;
12556;SDS011;6344;49.932;8.308;2023-03-31T00:32:31;6.17;;;4.93;;
12556;SDS011;6344;49.932;8.308;2023-03-31T00:34:58;6.07;;;2.93;;
12556;SDS011;6344;49.932;8.308;2023-03-31T00:37:26;8.77;;;4.40;;
12556;SDS011;6344;49.932;8.308;2023-03-31T00:39:53;7.47;;;3.83;;
12556;SDS011;6344;49.932;8.308;2023-03-31T00:42:21;5.43;;;3.20;;
12556;SDS011;6344;49.932;8.308;2023-03-31T00:47:48;9.47;;;3.87;;
12556;SDS011;6344;49.932;8.308;2023-03-31T00:50:18;6.10;;;3.73;;
12556;SDS011;6344;49.932;8.308;2023-03-31T00:52:47;10.60;;;3.57;;
12556;SDS011;6344;49.932;8.308;2023-03-31T00:55:20;8.37;;;4.33;;
12556;SDS011;6344;49.932;8.308;2023-03-31T00:57:52;7.77;;;3.53;;
12556;SDS011;6344;49.932;8.308;2023-03-31T01:00:19;10.60;;;3.50;;
12556;SDS011;6344;49.932;8.308;2023-03-31T01:02:48;8.07;;;4.10;;
12556;SDS011;6344;49.932;8.308;2023-03-31T01:05:20;9.80;;;3.93;;
12556;SDS011;6344;49.932;8.308;2023-03-31T01:07:50;8.07;;;3.60;;
12556;SDS011;6344;49.932;8.308;2023-03-31T01:10:18;5.70;;;3.03;;
12556;SDS011;6344;49.932;8.308;2023-03-31T01:12:47;8.97;;;4.20;;
12556;SDS011;6344;49.932;8.308;2023-03-31T01:15:20;7.53;;;3.57;;
12556;SDS011;6344;49.932;8.308;2023-03-31T01:17:47;8.67;;;3.07;;
12556;SDS011;6344;49.932;8.308;2023-03-31T01:20:16;5.87;;;3.83;;
12556;SDS011;6344;49.932;8.308;2023-03-31T01:22:59;11.60;;;6.00;;
12556;SDS011;6344;49.932;8.308;2023-03-31T01:26:02;11.47;;;5.10;;
12556;SDS011;6344;49.932;8.308;2023-03-31T01:28:53;10.87;;;5.00;;
12556;SDS011;6344;49.932;8.308;2023-03-31T01:34:52;7.53;;;4.00;;
12556;SDS011;6344;49.932;8.308;2023-03-31T01:43:23;8.13;;;3.80;;
12556;SDS011;6344;49.932;8.308;2023-03-31T01:45:55;6.30;;;3.33;;
12556;SDS011;6344;49.932;8.308;2023-03-31T01:48:30;3.93;;;3.20;;
12556;SDS011;6344;49.932;8.308;2023-03-31T01:51:08;6.10;;;4.10;;
12556;SDS011;6344;49.932;8.308;2023-03-31T01:53:43;5.00;;;3.50;;
12556;SDS011;6344;49.932;8.308;2023-03-31T01:56:16;11.77;;;4.47;;
12556;SDS011;6344;49.932;8.308;2023-03-31T01:58:48;8.87;;;4.00;;
12556;SDS011;6344;49.932;8.308;2023-03-31T02:01:20;4.63;;;3.37;;
12556;SDS011;6344;49.932;8.308;2023-03-31T02:03:54;9.27;;;3.87;;
12556;SDS011;6344;49.932;8.308;2023-03-31T02:06:24;10.90;;;4.80;;
12556;SDS011;6344;49.932;8.308;2023-03-31T02:08:56;7.60;;;4.47;;
12556;SDS011;6344;49.932;8.308;2023-03-31T02:11:27;4.50;;;3.20;;
12556;SDS011;6344;49.932;8.308;2023-03-31T02:13:55;5.30;;;3.80;;
12556;SDS011;6344;49.932;8.308;2023-03-31T02:16:26;7.57;;;3.47;;
12556;SDS011;6344;49.932;8.308;2023-03-31T02:18:58;6.50;;;3.80;;
12556;SDS011;6344;49.932;8.308;2023-03-31T02:21:30;5.43;;;3.43;;
12556;SDS011;6344;49.932;8.308;2023-03-31T02:23:59;10.70;;;4.17;;
12556;SDS011;6344;49.932;8.308;2023-03-31T02:26:30;4.57;;;4.00;;
12556;SDS011;6344;49.932;8.308;2023-03-31T02:29:01;6.53;;;3.77;;
12556;SDS011;6344;49.932;8.308;2023-03-31T02:31:29;12.80;;;5.50;;
12556;SDS011;6344;49.932;8.308;2023-03-31T02:34:04;9.67;;;4.60;;
12556;SDS011;6344;49.932;8.308;2023-03-31T02:36:32;11.37;;;5.73;;
12556;SDS011;6344;49.932;8.308;2023-03-31T02:39:01;13.57;;;4.70;;
12556;SDS011;6344;49.932;8.308;2023-03-31T02:41:32;4.43;;;3.40;;
12556;SDS011;6344;49.932;8.308;2023-03-31T02:43:59;5.60;;;3.27;;
12556;SDS011;6344;49.932;8.308;2023-03-31T02:46:26;7.00;;;3.63;;
12556;SDS011;6344;49.932;8.308;2023-03-31T02:48:55;6.17;;;3.20;;
12556;SDS011;6344;49.932;8.308;2023-03-31T02:51:29;7.73;;;3.67;;
12556;SDS011;6344;49.932;8.308;2023-03-31T02:54:21;7.77;;;3.23;;
12556;SDS011;6344;49.932;8.308;2023-03-31T02:57:03;4.37;;;2.50;;
12556;SDS011;6344;49.932;8.308;2023-03-31T02:59:44;5.30;;;2.87;;
12556;SDS011;6344;49.932;8.308;2023-03-31T03:02:23;5.63;;;2.70;;
12556;SDS011;6344;49.932;8.308;2023-03-31T03:05:07;5.03;;;3.00;;
12556;SDS011;6344;49.932;8.308;2023-03-31T03:07:47;7.17;;;2.83;;
12556;SDS011;6344;49.932;8.308;2023-03-31T03:10:21;5.43;;;2.70;;
12556;SDS011;6344;49.932;8.308;2023-03-31T03:12:57;4.70;;;2.53;;
12556;SDS011;6344;49.932;8.308;2023-03-31T03:15:32;7.47;;;2.83;;
12556;SDS011;6344;49.932;8.308;2023-03-31T03:18:06;11.07;;;2.70;;
12556;SDS011;6344;49.932;8.308;2023-03-31T03:20:33;7.17;;;2.40;;
12556;SDS011;6344;49.932;8.308;2023-03-31T03:22:59;5.77;;;2.90;;
12556;SDS011;6344;49.932;8.308;2023-03-31T03:25:26;4.60;;;2.63;;
12556;SDS011;6344;49.932;8.308;2023-03-31T03:27:54;9.53;;;2.93;;
12556;SDS011;6344;49.932;8.308;2023-03-31T03:30:22;6.67;;;2.90;;
12556;SDS011;6344;49.932;8.308;2023-03-31T03:32:49;8.90;;;2.67;;
12556;SDS011;6344;49.932;8.308;2023-03-31T03:35:15;3.97;;;2.70;;
12556;SDS011;6344;49.932;8.308;2023-03-31T03:37:42;5.67;;;2.97;;
12556;SDS011;6344;49.932;8.308;2023-03-31T03:40:09;6.50;;;2.93;;
12556;SDS011;6344;49.932;8.308;2023-03-31T03:42:36;6.47;;;2.37;;
12556;SDS011;6344;49.932;8.308;2023-03-31T03:45:03;10.73;;;3.30;;
12556;SDS011;6344;49.932;8.308;2023-03-31T03:47:32;6.67;;;3.20;;
12556;SDS011;6344;49.932;8.308;2023-03-31T03:50:00;4.10;;;2.90;;
12556;SDS011;6344;49.932;8.308;2023-03-31T03:52:26;5.10;;;2.93;;
12556;SDS011;6344;49.932;8.308;2023-03-31T03:54:53;4.53;;;2.70;;
12556;SDS011;6344;49.932;8.308;2023-03-31T03:57:20;7.03;;;4.70;;
12556;SDS011;6344;49.932;8.308;2023-03-31T03:59:46;4.77;;;3.37;;
12556;SDS011;6344;49.932;8.308;2023-03-31T04:02:13;4.77;;;2.67;;
12556;SDS011;6344;49.932;8.308;2023-03-31T04:04:41;6.53;;;3.40;;
12556;SDS011;6344;49.932;8.308;2023-03-31T04:07:08;5.10;;;2.77;;
12556;SDS011;6344;49.932;8.308;2023-03-31T04:09:34;6.23;;;2.73;;
12556;SDS011;6344;49.932;8.308;2023-03-31T04:12:01;5.57;;;2.70;;
12556;SDS011;6344;49.932;8.308;2023-03-31T04:14:28;3.80;;;3.03;;
12556;SDS011;6344;49.932;8.308;2023-03-31T04:16:55;6.37;;;2.90;;
12556;SDS011;6344;49.932;8.308;2023-03-31T04:19:22;5.23;;;2.97;;
12556;SDS011;6344;49.932;8.308;2023-03-31T04:21:51;5.77;;;2.63;;
12556;SDS011;6344;49.932;8.308;2023-03-31T04:24:26;7.50;;;2.90;;
12556;SDS011;6344;49.932;8.308;2023-03-31T04:26:57;9.30;;;3.30;;
12556;SDS011;6344;49.932;8.308;2023-03-31T04:29:24;6.83;;;2.93;;
12556;SDS011;6344;49.932;8.308;2023-03-31T04:31:51;7.67;;;3.40;;
12556;SDS011;6344;49.932;8.308;2023-03-31T04:34:22;10.30;;;3.03;;
12556;SDS011;6344;49.932;8.308;2023-03-31T04:36:52;7.00;;;3.93;;
12556;SDS011;6344;49.932;8.308;2023-03-31T04:39:20;7.97;;;4.03;;
12556;SDS011;6344;49.932;8.308;2023-03-31T04:41:50;12.40;;;3.80;;
12556;SDS011;6344;49.932;8.308;2023-03-31T04:44:17;5.73;;;4.03;;
12556;SDS011;6344;49.932;8.308;2023-03-31T04:46:44;11.50;;;3.83;;
12556;SDS011;6344;49.932;8.308;2023-03-31T04:49:10;9.50;;;3.73;;
12556;SDS011;6344;49.932;8.308;2023-03-31T04:51:37;5.50;;;2.67;;
12556;SDS011;6344;49.932;8.308;2023-03-31T04:54:05;4.60;;;3.47;;
12556;SDS011;6344;49.932;8.308;2023-03-31T04:56:32;6.73;;;3.80;;
12556;SDS011;6344;49.932;8.308;2023-03-31T04:58:59;7.90;;;3.40;;
12556;SDS011;6344;49.932;8.308;2023-03-31T05:01:27;5.60;;;2.93;;
12556;SDS011;6344;49.932;8.308;2023-03-31T05:03:56;9.17;;;3.23;;
12556;SDS011;6344;49.932;8.308;2023-03-31T05:06:23;7.60;;;3.50;;
12556;SDS011;6344;49.932;8.308;2023-03-31T05:08:50;6.53;;;2.70;;
12556;SDS011;6344;49.932;8.308;2023-03-31T05:11:18;6.27;;;3.40;;
12556;SDS011;6344;49.932;8.308;2023-03-31T05:13:45;5.33;;;2.63;;
12556;SDS011;6344;49.932;8.308;2023-03-31T05:16:12;8.93;;;3.63;;
12556;SDS011;6344;49.932;8.308;2023-03-31T05:18:40;4.33;;;3.43;;
12556;SDS011;6344;49.932;8.308;2023-03-31T05:21:08;10.80;;;3.20;;
12556;SDS011;6344;49.932;8.308;2023-03-31T05:23:36;8.17;;;3.37;;
12556;SDS011;6344;49.932;8.308;2023-03-31T05:26:02;5.20;;;2.93;;
12556;SDS011;6344;49.932;8.308;2023-03-31T05:28:31;6.20;;;3.10;;
12556;SDS011;6344;49.932;8.308;2023-03-31T05:30:58;8.70;;;3.67;;
12556;SDS011;6344;49.932;8.308;2023-03-31T05:33:25;5.80;;;2.60;;
12556;SDS011;6344;49.932;8.308;2023-03-31T05:35:52;3.00;;;2.60;;
12556;SDS011;6344;49.932;8.308;2023-03-31T05:38:19;5.53;;;3.47;;
12556;SDS011;6344;49.932;8.308;2023-03-31T05:40:46;10.70;;;4.90;;
12556;SDS011;6344;49.932;8.308;2023-03-31T05:43:13;7.77;;;4.40;;
12556;SDS011;6344;49.932;8.308;2023-03-31T05:45:41;7.97;;;3.80;;
12556;SDS011;6344;49.932;8.308;2023-03-31T05:48:08;5.23;;;4.13;;
12556;SDS011;6344;49.932;8.308;2023-03-31T05:50:34;11.80;;;5.40;;
12556;SDS011;6344;49.932;8.308;2023-03-31T05:53:01;7.70;;;4.50;;
12556;SDS011;6344;49.932;8.308;2023-03-31T05:55:27;3.93;;;3.53;;
12556;SDS011;6344;49.932;8.308;2023-03-31T05:57:55;7.93;;;3.50;;
12556;SDS011;6344;49.932;8.308;2023-03-31T06:00:21;8.90;;;3.87;;
12556;SDS011;6344;49.932;8.308;2023-03-31T06:02:50;6.07;;;3.10;;
12556;SDS011;6344;49.932;8.308;2023-03-31T06:05:16;4.27;;;3.17;;
12556;SDS011;6344;49.932;8.308;2023-03-31T06:07:43;8.73;;;3.13;;
12556;SDS011;6344;49.932;8.308;2023-03-31T06:10:09;11.03;;;3.50;;
12556;SDS011;6344;49.932;8.308;2023-03-31T06:12:36;6.37;;;2.67;;
12556;SDS011;6344;49.932;8.308;2023-03-31T06:15:03;9.33;;;3.30;;
12556;SDS011;6344;49.932;8.308;2023-03-31T06:17:30;6.17;;;2.60;;
12556;SDS011;6344;49.932;8.308;2023-03-31T06:19:58;7.90;;;3.33;;
12556;SDS011;6344;49.932;8.308;2023-03-31T06:22:25;11.80;;;4.40;;
12556;SDS011;6344;49.932;8.308;2023-03-31T06:24:51;8.80;;;3.43;;
12556;SDS011;6344;49.932;8.308;2023-03-31T06:27:18;6.40;;;4.47;;
12556;SDS011;6344;49.932;8.308;2023-03-31T06:29:45;8.60;;;3.73;;
12556;SDS011;6344;49.932;8.308;2023-03-31T06:32:11;7.80;;;4.10;;
12556;SDS011;6344;49.932;8.308;2023-03-31T06:34:38;5.40;;;4.00;;
12556;SDS011;6344;49.932;8.308;2023-03-31T06:37:06;7.00;;;4.33;;
12556;SDS011;6344;49.932;8.308;2023-03-31T06:39:32;8.40;;;4.97;;
12556;SDS011;6344;49.932;8.308;2023-03-31T06:41:59;7.13;;;4.53;;
12556;SDS011;6344;49.932;8.308;2023-03-31T06:44:26;6.50;;;4.60;;
12556;SDS011;6344;49.932;8.308;2023-03-31T06:46:52;7.97;;;5.50;;
12556;SDS011;6344;49.932;8.308;2023-03-31T06:49:20;6.03;;;4.63;;
12556;SDS011;6344;49.932;8.308;2023-03-31T06:51:46;10.33;;;5.90;;
12556;SDS011;6344;49.932;8.308;2023-03-31T06:54:14;9.90;;;5.70;;
12556;SDS011;6344;49.932;8.308;2023-03-31T06:56:41;9.03;;;6.20;;
12556;SDS011;6344;49.932;8.308;2023-03-31T06:59:08;6.30;;;5.40;;
12556;SDS011;6344;49.932;8.308;2023-03-31T07:01:34;6.07;;;5.23;;
12556;SDS011;6344;49.932;8.308;2023-03-31T07:04:03;12.23;;;6.50;;
12556;SDS011;6344;49.932;8.308;2023-03-31T07:06:29;9.43;;;6.97;;
12556;SDS011;6344;49.932;8.308;2023-03-31T07:08:56;7.73;;;5.67;;
12556;SDS011;6344;49.932;8.308;2023-03-31T07:11:24;8.00;;;6.20;;
12556;SDS011;6344;49.932;8.308;2023-03-31T07:13:51;7.33;;;6.30;;
12556;SDS011;6344;49.932;8.308;2023-03-31T07:16:18;7.33;;;6.20;;
12556;SDS011;6344;49.932;8.308;2023-03-31T07:18:45;11.00;;;6.30;;
12556;SDS011;6344;49.932;8.308;2023-03-31T07:21:11;10.37;;;5.80;;
12556;SDS011;6344;49.932;8.308;2023-03-31T07:23:38;8.57;;;6.40;;
12556;SDS011;6344;49.932;8.308;2023-03-31T07:26:05;3.30;;;3.00;;
12556;SDS011;6344;49.932;8.308;2023-03-31T07:28:33;2.50;;;2.20;;
12556;SDS011;6344;49.932;8.308;2023-03-31T07:31:00;6.07;;;4.50;;
12556;SDS011;6344;49.932;8.308;2023-03-31T07:33:27;7.57;;;5.90;;
12556;SDS011;6344;49.932;8.308;2023-03-31T07:35:53;8.43;;;6.83;;
12556;SDS011;6344;49.932;8.308;2023-03-31T07:38:20;9.67;;;6.90;;
12556;SDS011;6344;49.932;8.308;2023-03-31T07:40:47;14.07;;;12.70;;
12556;SDS011;6344;49.932;8.308;2023-03-31T07:43:13;9.30;;;7.30;;
12556;SDS011;6344;49.932;8.308;2023-03-31T07:45:41;7.40;;;6.77;;
12556;SDS011;6344;49.932;8.308;2023-03-31T07:48:08;8.00;;;6.13;;
12556;SDS011;6344;49.932;8.308;2023-03-31T07:50:34;6.30;;;5.70;;
12556;SDS011;6344;49.932;8.308;2023-03-31T07:53:01;5.17;;;4.47;;
12556;SDS011;6344;49.932;8.308;2023-03-31T07:55:28;2.67;;;2.40;;
12556;SDS011;6344;49.932;8.308;2023-03-31T07:57:55;2.23;;;2.03;;
12556;SDS011;6344;49.932;8.308;2023-03-31T08:00:22;2.57;;;2.20;;
12556;SDS011;6344;49.932;8.308;2023-03-31T08:02:50;2.90;;;1.80;;
12556;SDS011;6344;49.932;8.308;2023-03-31T08:05:18;2.70;;;2.50;;
12556;SDS011;6344;49.932;8.308;2023-03-31T08:07:46;4.03;;;3.30;;
12556;SDS011;6344;49.932;8.308;2023-03-31T08:10:14;4.67;;;3.33;;
12556;SDS011;6344;49.932;8.308;2023-03-31T08:12:43;2.90;;;2.70;;
12556;SDS011;6344;49.932;8.308;2023-03-31T08:15:10;3.73;;;3.30;;
12556;SDS011;6344;49.932;8.308;2023-03-31T08:17:37;2.80;;;2.60;;
12556;SDS011;6344;49.932;8.308;2023-03-31T08:20:06;3.33;;;3.00;;
12556;SDS011;6344;49.932;8.308;2023-03-31T08:22:34;5.40;;;3.93;;
12556;SDS011;6344;49.932;8.308;2023-03-31T08:25:01;3.83;;;3.53;;
12556;SDS011;6344;49.932;8.308;2023-03-31T08:27:28;8.03;;;3.60;;
12556;SDS011;6344;49.932;8.308;2023-03-31T08:29:58;4.40;;;3.77;;
12556;SDS011;6344;49.932;8.308;2023-03-31T08:32:27;3.63;;;3.33;;
12556;SDS011;6344;49.932;8.308;2023-03-31T08:34:53;5.13;;;3.80;;
12556;SDS011;6344;49.932;8.308;2023-03-31T08:37:21;5.80;;;3.93;;
12556;SDS011;6344;49.932;8.308;2023-03-31T08:39:48;5.33;;;4.07;;
12556;SDS011;6344;49.932;8.308;2023-03-31T08:42:16;4.10;;;3.70;;
12556;SDS011;6344;49.932;8.308;2023-03-31T08:44:49;10.03;;;3.40;;
12556;SDS011;6344;49.932;8.308;2023-03-31T08:47:23;4.50;;;3.20;;
12556;SDS011;6344;49.932;8.308;2023-03-31T08:49:53;4.80;;;3.50;;
12556;SDS011;6344;49.932;8.308;2023-03-31T08:52:25;3.87;;;3.07;;
12556;SDS011;6344;49.932;8.308;2023-03-31T08:54:58;3.10;;;2.80;;
12556;SDS011;6344;49.932;8.308;2023-03-31T08:57:31;5.83;;;3.57;;
12556;SDS011;6344;49.932;8.308;2023-03-31T09:00:08;3.20;;;2.90;;
12556;SDS011;6344;49.932;8.308;2023-03-31T09:02:41;4.53;;;3.17;;
12556;SDS011;6344;49.932;8.308;2023-03-31T09:08:12;3.37;;;3.03;;
12556;SDS011;6344;49.932;8.308;2023-03-31T09:10:47;6.03;;;3.40;;
12556;SDS011;6344;49.932;8.308;2023-03-31T09:13:31;5.93;;;4.37;;
12556;SDS011;6344;49.932;8.308;2023-03-31T09:16:12;5.50;;;4.10;;
12556;SDS011;6344;49.932;8.308;2023-03-31T09:18:39;5.17;;;3.80;;
12556;SDS011;6344;49.932;8.308;2023-03-31T09:21:11;7.17;;;4.53;;
12556;SDS011;6344;49.932;8.308;2023-03-31T09:23:45;6.97;;;4.57;;
12556;SDS011;6344;49.932;8.308;2023-03-31T09:26:19;8.83;;;3.90;;
12556;SDS011;6344;49.932;8.308;2023-03-31T09:28:50;9.07;;;3.90;;
12556;SDS011;6344;49.932;8.308;2023-03-31T09:31:19;4.50;;;3.50;;
12556;SDS011;6344;49.932;8.308;2023-03-31T09:33:47;7.20;;;4.30;;
12556;SDS011;6344;49.932;8.308;2023-03-31T09:36:18;4.77;;;3.10;;
12556;SDS011;6344;49.932;8.308;2023-03-31T09:38:48;5.50;;;3.70;;
12556;SDS011;6344;49.932;8.308;2023-03-31T09:41:15;4.80;;;3.67;;
12556;SDS011;6344;49.932;8.308;2023-03-31T09:43:44;3.23;;;2.40;;
12556;SDS011;6344;49.932;8.308;2023-03-31T09:46:14;7.37;;;3.30;;
12556;SDS011;6344;49.932;8.308;2023-03-31T09:48:47;7.00;;;4.07;;
12556;SDS011;6344;49.932;8.308;2023-03-31T09:51:19;11.13;;;3.50;;
12556;SDS011;6344;49.932;8.308;2023-03-31T09:53:53;6.67;;;3.20;;
12556;SDS011;6344;49.932;8.308;2023-03-31T09:56:43;9.80;;;4.33;;
12556;SDS011;6344;49.932;8.308;2023-03-31T09:59:14;10.63;;;4.37;;
12556;SDS011;6344;49.932;8.308;2023-03-31T10:01:43;7.07;;;3.77;;
12556;SDS011;6344;49.932;8.308;2023-03-31T10:04:14;6.03;;;3.53;;
12556;SDS011;6344;49.932;8.308;2023-03-31T10:06:45;5.00;;;3.30;;
12556;SDS011;6344;49.932;8.308;2023-03-31T10:09:14;2.63;;;2.40;;
12556;SDS011;6344;49.932;8.308;2023-03-31T10:11:50;7.30;;;3.50;;
12556;SDS011;6344;49.932;8.308;2023-03-31T10:14:22;6.20;;;2.17;;
12556;SDS011;6344;49.932;8.308;2023-03-31T10:16:52;4.17;;;1.83;;
12556;SDS011;6344;49.932;8.308;2023-03-31T10:19:20;5.57;;;1.97;;
12556;SDS011;6344;49.932;8.308;2023-03-31T10:21:54;1.50;;;1.10;;
12556;SDS011;6344;49.932;8.308;2023-03-31T10:24:23;2.17;;;1.10;;
12556;SDS011;6344;49.932;8.308;2023-03-31T10:26:52;14.50;;;2.03;;
12556;SDS011;6344;49.932;8.308;2023-03-31T10:29:28;3.40;;;1.30;;
12556;SDS011;6344;49.932;8.308;2023-03-31T10:32:00;5.23;;;1.47;;
12556;SDS011;6344;49.932;8.308;2023-03-31T10:34:29;4.70;;;1.50;;
12556;SDS011;6344;49.932;8.308;2023-03-31T10:36:57;1.63;;;1.40;;
12556;SDS011;6344;49.932;8.308;2023-03-31T10:39:27;3.27;;;1.60;;
12556;SDS011;6344;49.932;8.308;2023-03-31T10:41:56;2.13;;;1.50;;
12556;SDS011;6344;49.932;8.308;2023-03-31T10:44:29;6.77;;;1.90;;
12556;SDS011;6344;49.932;8.308;2023-03-31T10:47:02;5.33;;;2.73;;
12556;SDS011;6344;49.932;8.308;2023-03-31T10:49:33;4.17;;;2.40;;
12556;SDS011;6344;49.932;8.308;2023-03-31T10:52:10;5.10;;;2.40;;
12556;SDS011;6344;49.932;8.308;2023-03-31T10:54:46;4.23;;;2.30;;
12556;SDS011;6344;49.932;8.308;2023-03-31T10:57:14;4.40;;;2.33;;
12556;SDS011;6344;49.932;8.308;2023-03-31T10:59:46;5.53;;;2.57;;
12556;SDS011;6344;49.932;8.308;2023-03-31T11:05:38;7.67;;;3.20;;
12556;SDS011;6344;49.932;8.308;2023-03-31T11:08:21;8.47;;;3.00;;
12556;SDS011;6344;49.932;8.308;2023-03-31T11:11:09;6.03;;;3.67;;
12556;SDS011;6344;49.932;8.308;2023-03-31T11:13:51;7.20;;;3.70;;
12556;SDS011;6344;49.932;8.308;2023-03-31T11:16:24;7.03;;;4.13;;
12556;SDS011;6344;49.932;8.308;2023-03-31T11:19:02;6.73;;;2.70;;
12556;SDS011;6344;49.932;8.308;2023-03-31T11:21:40;9.30;;;4.20;;
12556;SDS011;6344;49.932;8.308;2023-03-31T11:24:16;5.20;;;3.27;;
12556;SDS011;6344;49.932;8.308;2023-03-31T11:26:53;12.73;;;3.83;;
12556;SDS011;6344;49.932;8.308;2023-03-31T11:29:29;5.37;;;3.20;;
12556;SDS011;6344;49.932;8.308;2023-03-31T11:32:12;7.97;;;3.77;;
12556;SDS011;6344;49.932;8.308;2023-03-31T11:34:54;8.53;;;3.17;;
12556;SDS011;6344;49.932;8.308;2023-03-31T11:37:32;5.90;;;2.97;;
12556;SDS011;6344;49.932;8.308;2023-03-31T11:40:12;5.27;;;2.13;;
12556;SDS011;6344;49.932;8.308;2023-03-31T11:42:48;8.23;;;2.30;;
12556;SDS011;6344;49.932;8.308;2023-03-31T11:45:19;5.97;;;2.60;;
12556;SDS011;6344;49.932;8.308;2023-03-31T11:47:51;7.83;;;2.80;;
12556;SDS011;6344;49.932;8.308;2023-03-31T11:50:22;4.13;;;3.40;;
12556;SDS011;6344;49.932;8.308;2023-03-31T11:52:55;5.63;;;2.70;;
12556;SDS011;6344;49.932;8.308;2023-03-31T11:55:26;6.23;;;2.60;;
12556;SDS011;6344;49.932;8.308;2023-03-31T11:57:58;6.50;;;2.70;;
12556;SDS011;6344;49.932;8.308;2023-03-31T12:00:29;3.80;;;2.97;;
12556;SDS011;6344;49.932;8.308;2023-03-31T12:03:00;5.73;;;3.03;;
12556;SDS011;6344;49.932;8.308;2023-03-31T12:05:32;6.57;;;2.63;;
12556;SDS011;6344;49.932;8.308;2023-03-31T12:08:04;6.20;;;2.20;;
12556;SDS011;6344;49.932;8.308;2023-03-31T12:10:35;4.13;;;2.60;;
12556;SDS011;6344;49.932;8.308;2023-03-31T12:13:08;2.20;;;1.97;;
12556;SDS011;6344;49.932;8.308;2023-03-31T12:16:03;5.33;;;2.50;;
12556;SDS011;6344;49.932;8.308;2023-03-31T12:18:34;4.10;;;2.50;;
12556;SDS011;6344;49.932;8.308;2023-03-31T12:21:04;6.90;;;2.23;;
12556;SDS011;6344;49.932;8.308;2023-03-31T12:23:33;6.57;;;2.57;;
12556;SDS011;6344;49.932;8.308;2023-03-31T12:26:05;4.47;;;1.60;;
12556;SDS011;6344;49.932;8.308;2023-03-31T12:28:39;4.47;;;1.90;;
12556;SDS011;6344;49.932;8.308;2023-03-31T12:31:10;6.77;;;1.60;;
12556;SDS011;6344;49.932;8.308;2023-03-31T12:33:42;3.57;;;1.60;;
12556;SDS011;6344;49.932;8.308;2023-03-31T12:36:15;4.57;;;1.80;;
12556;SDS011;6344;49.932;8.308;2023-03-31T12:38:54;5.47;;;1.80;;
12556;SDS011;6344;49.932;8.308;2023-03-31T12:41:34;5.40;;;2.47;;
12556;SDS011;6344;49.932;8.308;2023-03-31T12:44:12;2.20;;;1.20;;
12556;SDS011;6344;49.932;8.308;2023-03-31T12:49:54;6.30;;;2.63;;
12556;SDS011;6344;49.932;8.308;2023-03-31T12:52:29;4.80;;;2.47;;
12556;SDS011;6344;49.932;8.308;2023-03-31T13:01:04;3.07;;;2.10;;
12556;SDS011;6344;49.932;8.308;2023-03-31T13:03:38;3.03;;;1.30;;
12556;SDS011;6344;49.932;8.308;2023-03-31T13:06:11;5.77;;;2.37;;
12556;SDS011;6344;49.932;8.308;2023-03-31T13:12:17;1.73;;;0.93;;
12556;SDS011;6344;49.932;8.308;2023-03-31T13:14:46;1.83;;;1.10;;
12556;SDS011;6344;49.932;8.308;2023-03-31T13:17:24;4.40;;;1.10;;
12556;SDS011;6344;49.932;8.308;2023-03-31T13:19:54;1.37;;;0.83;;
12556;SDS011;6344;49.932;8.308;2023-03-31T13:22:32;1.30;;;0.80;;
12556;SDS011;6344;49.932;8.308;2023-03-31T13:28:13;1.20;;;0.90;;
12556;SDS011;6344;49.932;8.308;2023-03-31T13:31:14;1.57;;;1.10;;
12556;SDS011;6344;49.932;8.308;2023-03-31T13:33:43;1.00;;;0.80;;
12556;SDS011;6344;49.932;8.308;2023-03-31T13:36:19;1.87;;;1.00;;
12556;SDS011;6344;49.932;8.308;2023-03-31T13:39:08;1.70;;;0.87;;
12556;SDS011;6344;49.932;8.308;2023-03-31T13:41:52;2.20;;;1.10;;
12556;SDS011;6344;49.932;8.308;2023-03-31T13:44:31;2.33;;;1.07;;
12556;SDS011;6344;49.932;8.308;2023-03-31T13:50:44;2.67;;;1.00;;
12556;SDS011;6344;49.932;8.308;2023-03-31T13:53:28;2.13;;;0.90;;
12556;SDS011;6344;49.932;8.308;2023-03-31T13:56:08;1.90;;;1.10;;
12556;SDS011;6344;49.932;8.308;2023-03-31T13:58:56;2.10;;;1.10;;
12556;SDS011;6344;49.932;8.308;2023-03-31T14:01:47;1.50;;;1.17;;
12556;SDS011;6344;49.932;8.308;2023-03-31T14:04:29;1.57;;;1.30;;
12556;SDS011;6344;49.932;8.308;2023-03-31T14:07:09;1.90;;;1.77;;
12556;SDS011;6344;49.932;8.308;2023-03-31T14:09:40;2.67;;;1.93;;
12556;SDS011;6344;49.932;8.308;2023-03-31T14:12:20;1.70;;;1.30;;
12556;SDS011;6344;49.932;8.308;2023-03-31T14:14:51;2.77;;;1.63;;
12556;SDS011;6344;49.932;8.308;2023-03-31T14:17:18;2.40;;;1.43;;
12556;SDS011;6344;49.932;8.308;2023-03-31T14:19:50;3.20;;;1.40;;
12556;SDS011;6344;49.932;8.308;2023-03-31T14:22:41;1.93;;;1.40;;
12556;SDS011;6344;49.932;8.308;2023-03-31T14:25:14;2.90;;;1.83;;
12556;SDS011;6344;49.932;8.308;2023-03-31T14:27:50;2.30;;;1.60;;
12556;SDS011;6344;49.932;8.308;2023-03-31T14:30:26;3.00;;;1.70;;
12556;SDS011;6344;49.932;8.308;2023-03-31T14:33:05;3.80;;;1.70;;
12556;SDS011;6344;49.932;8.308;2023-03-31T14:35:45;2.37;;;1.33;;
12556;SDS011;6344;49.932;8.308;2023-03-31T14:38:19;2.17;;;1.30;;
12556;SDS011;6344;49.932;8.308;2023-03-31T14:40:48;3.93;;;1.70;;
12556;SDS011;6344;49.932;8.308;2023-03-31T14:43:18;3.17;;;2.17;;
12556;SDS011;6344;49.932;8.308;2023-03-31T14:45:47;3.20;;;1.90;;
12556;SDS011;6344;49.932;8.308;2023-03-31T14:48:22;3.47;;;1.67;;
12556;SDS011;6344;49.932;8.308;2023-03-31T14:50:55;5.23;;;1.60;;
12556;SDS011;6344;49.932;8.308;2023-03-31T14:53:24;2.40;;;1.63;;
12556;SDS011;6344;49.932;8.308;2023-03-31T14:55:53;3.10;;;1.40;;
12556;SDS011;6344;49.932;8.308;2023-03-31T14:58:26;2.77;;;1.60;;
12556;SDS011;6344;49.932;8.308;2023-03-31T15:00:58;3.97;;;1.90;;
12556;SDS011;6344;49.932;8.308;2023-03-31T15:03:25;3.63;;;1.87;;
12556;SDS011;6344;49.932;8.308;2023-03-31T15:05:55;1.73;;;1.33;;
12556;SDS011;6344;49.932;8.308;2023-03-31T15:08:24;3.73;;;1.47;;
12556;SDS011;6344;49.932;8.308;2023-03-31T15:10:53;3.20;;;1.30;;
12556;SDS011;6344;49.932;8.308;2023-03-31T15:13:23;2.90;;;1.50;;
12556;SDS011;6344;49.932;8.308;2023-03-31T15:15:55;1.50;;;1.17;;
12556;SDS011;6344;49.932;8.308;2023-03-31T15:18:24;3.73;;;1.30;;
12556;SDS011;6344;49.932;8.308;2023-03-31T15:20:51;2.90;;;1.30;;
12556;SDS011;6344;49.932;8.308;2023-03-31T15:23:19;4.40;;;1.87;;
12556;SDS011;6344;49.932;8.308;2023-03-31T15:25:50;4.43;;;1.93;;
12556;SDS011;6344;49.932;8.308;2023-03-31T15:28:21;3.83;;;1.47;;
12556;SDS011;6344;49.932;8.308;2023-03-31T15:30:49;5.17;;;1.50;;
12556;SDS011;6344;49.932;8.308;2023-03-31T15:33:17;3.63;;;1.77;;
12556;SDS011;6344;49.932;8.308;2023-03-31T15:35:46;3.30;;;1.67;;
12556;SDS011;6344;49.932;8.308;2023-03-31T15:38:14;3.87;;;1.60;;
12556;SDS011;6344;49.932;8.308;2023-03-31T15:40:42;2.70;;;1.83;;
12556;SDS011;6344;49.932;8.308;2023-03-31T15:43:13;3.30;;;1.40;;
12556;SDS011;6344;49.932;8.308;2023-03-31T15:45:46;5.07;;;2.03;;
12556;SDS011;6344;49.932;8.308;2023-03-31T15:48:19;3.07;;;1.87;;
12556;SDS011;6344;49.932;8.308;2023-03-31T15:50:48;4.87;;;2.10;;
12556;SDS011;6344;49.932;8.308;2023-03-31T15:53:20;5.60;;;2.50;;
12556;SDS011;6344;49.932;8.308;2023-03-31T15:55:54;3.43;;;1.87;;
12556;SDS011;6344;49.932;8.308;2023-03-31T15:58:44;6.30;;;2.30;;
12556;SDS011;6344;49.932;8.308;2023-03-31T16:01:13;4.97;;;2.10;;